createdAt,value
2023-01-07T00:04:53.254Z,9.03
2023-01-07T00:09:58.104Z,6.87
2023-01-07T00:15:05.425Z,8.37
2023-01-07T00:20:07.937Z,7.97
2023-01-07T00:25:10.124Z,7.40
2023-01-07T00:30:13.144Z,6.73
2023-01-07T00:35:24.167Z,6.70
2023-01-07T00:40:26.103Z,6.80
2023-01-07T00:45:33.938Z,6.50
2023-01-07T00:50:38.180Z,6.30
2023-01-07T00:55:40.162Z,6.00
2023-01-07T01:00:42.043Z,6.30
2023-01-07T01:05:43.895Z,5.87
2023-01-07T01:10:45.937Z,7.10
2023-01-07T01:15:49.857Z,5.30
2023-01-07T01:20:52.002Z,5.63
2023-01-07T01:26:12.028Z,4.87
2023-01-07T01:31:14.315Z,5.03
2023-01-07T01:36:16.031Z,5.30
2023-01-07T01:41:17.892Z,4.50
2023-01-07T01:46:42.278Z,4.40
2023-01-07T01:52:16.756Z,4.20
2023-01-07T01:57:22.767Z,4.50
2023-01-07T02:02:46.511Z,4.60
2023-01-07T02:07:48.318Z,4.87
2023-01-07T02:13:43.491Z,5.23
2023-01-07T02:19:31.861Z,4.90
2023-01-07T02:25:17.442Z,5.20
2023-01-07T02:31:31.706Z,5.47
2023-01-07T02:36:52.891Z,4.00
2023-01-07T02:42:23.806Z,5.20
2023-01-07T02:47:54.353Z,5.43
2023-01-07T02:52:56.162Z,5.10
2023-01-07T02:58:45.460Z,5.53
2023-01-07T03:04:28.996Z,5.10
2023-01-07T03:09:48.159Z,5.50
2023-01-07T03:14:58.982Z,5.50
2023-01-07T03:20:05.827Z,5.03
2023-01-07T03:25:08.929Z,6.47
2023-01-07T03:30:17.273Z,6.40
2023-01-07T03:35:22.081Z,6.40
2023-01-07T03:40:24.691Z,7.60
2023-01-07T03:45:28.800Z,7.40
2023-01-07T03:50:30.637Z,8.13
2023-01-07T03:55:32.357Z,8.83
2023-01-07T04:00:34.151Z,8.50
2023-01-07T04:05:35.902Z,9.37
2023-01-07T04:10:37.685Z,8.80
2023-01-07T04:15:39.487Z,9.80
2023-01-07T04:20:44.571Z,8.60
2023-01-07T04:25:50.473Z,8.97
2023-01-07T04:30:52.327Z,9.80
2023-01-07T04:35:54.205Z,11.90
2023-01-07T04:40:56.301Z,10.60
2023-01-07T04:45:58.041Z,10.57
2023-01-07T04:50:59.902Z,11.40
2023-01-07T04:56:01.706Z,10.13
2023-01-07T05:01:04.569Z,10.80
2023-01-07T05:06:06.421Z,10.00
2023-01-07T05:11:08.213Z,9.83
2023-01-07T05:16:09.914Z,8.73
2023-01-07T05:21:12.446Z,10.07
2023-01-07T05:26:14.234Z,9.27
2023-01-07T05:31:16.160Z,10.87
2023-01-07T05:36:17.963Z,10.47
2023-01-07T05:41:19.805Z,11.60
2023-01-07T05:46:21.575Z,11.20
2023-01-07T05:51:23.293Z,10.50
2023-01-07T05:56:25.063Z,10.27
2023-01-07T06:01:26.962Z,10.63
2023-01-07T06:06:28.883Z,10.60
2023-01-07T06:11:30.698Z,9.60
2023-01-07T06:16:32.481Z,10.20
2023-01-07T06:21:34.212Z,10.83
2023-01-07T06:26:36.150Z,10.77
2023-01-07T06:31:37.893Z,11.00
2023-01-07T06:36:39.626Z,10.27
2023-01-07T06:41:41.401Z,11.33
2023-01-07T06:46:43.190Z,12.03
2023-01-07T06:51:45.090Z,9.57
2023-01-07T06:56:46.885Z,10.00
2023-01-07T07:01:48.765Z,10.17
2023-01-07T07:06:50.494Z,10.27
2023-01-07T07:11:52.250Z,10.20
2023-01-07T07:16:54.111Z,10.90
2023-01-07T07:21:56.203Z,8.73
2023-01-07T07:26:59.840Z,10.03
2023-01-07T07:32:01.870Z,8.20
2023-01-07T07:37:03.662Z,9.30
2023-01-07T07:42:06.185Z,9.20
2023-01-07T07:47:07.909Z,8.30
2023-01-07T07:52:09.927Z,8.40
2023-01-07T07:57:11.726Z,8.03
2023-01-07T08:02:14.410Z,8.53
2023-01-07T08:07:32.415Z,8.47
2023-01-07T08:12:39.924Z,8.50
2023-01-07T08:17:41.876Z,7.50
2023-01-07T08:22:43.599Z,9.77
2023-01-07T08:27:45.641Z,7.67
2023-01-07T08:32:48.023Z,7.20
2023-01-07T08:37:50.341Z,8.20
2023-01-07T08:42:52.032Z,7.30
2023-01-07T08:47:57.424Z,7.60
2023-01-07T08:53:00.154Z,6.63
2023-01-07T08:58:01.927Z,7.97
2023-01-07T09:03:04.730Z,9.77
2023-01-07T09:08:06.548Z,7.13
2023-01-07T09:13:08.579Z,7.70
2023-01-07T09:18:10.916Z,6.10
2023-01-07T09:23:12.760Z,6.37
2023-01-07T09:28:14.520Z,9.13
2023-01-07T09:33:16.366Z,8.40
2023-01-07T09:38:18.167Z,6.30
2023-01-07T09:43:26.306Z,5.90
2023-01-07T09:49:02.079Z,5.80
2023-01-07T09:54:12.468Z,8.77
2023-01-07T09:59:16.643Z,10.63
2023-01-07T10:05:11.322Z,4.97
2023-01-07T10:10:23.568Z,4.87
2023-01-07T10:15:42.086Z,4.70
2023-01-07T10:21:04.647Z,4.23
2023-01-07T10:26:22.585Z,4.10
2023-01-07T10:31:28.790Z,4.60
2023-01-07T10:37:00.563Z,4.37
2023-01-07T10:42:21.127Z,4.80
2023-01-07T10:48:19.819Z,3.70
2023-01-07T10:54:02.985Z,3.70
2023-01-07T10:59:05.451Z,3.90
2023-01-07T11:04:16.084Z,3.70
2023-01-07T11:09:34.591Z,3.60
2023-01-07T11:14:41.856Z,3.70
2023-01-07T11:19:49.176Z,3.33
2023-01-07T11:24:50.942Z,3.63
2023-01-07T11:30:27.468Z,3.00
2023-01-07T11:35:29.680Z,1.53
2023-01-07T11:40:33.066Z,6.00
2023-01-07T11:46:19.242Z,2.40
2023-01-07T11:51:17.619Z,3.20
2023-01-07T11:56:33.982Z,2.40
2023-01-07T12:01:59.845Z,2.50
2023-01-07T12:07:16.622Z,2.50
2023-01-07T12:12:40.106Z,2.20
2023-01-07T12:18:07.432Z,2.73
2023-01-07T12:23:50.956Z,2.50
2023-01-07T12:29:05.791Z,1.67
2023-01-07T12:35:15.153Z,4.07
2023-01-07T12:40:38.929Z,1.90
2023-01-07T12:45:57.819Z,1.87
2023-01-07T12:51:14.979Z,2.43
2023-01-07T12:56:34.547Z,1.90
2023-01-07T13:01:44.972Z,1.73
2023-01-07T13:07:14.811Z,2.10
2023-01-07T13:12:48.302Z,2.33
2023-01-07T13:17:55.459Z,1.53
2023-01-07T13:22:58.641Z,2.40
2023-01-07T13:29:03.745Z,1.70
2023-01-07T13:34:44.916Z,2.20
2023-01-07T13:40:30.838Z,1.50
2023-01-07T13:45:37.147Z,2.00
2023-01-07T13:51:02.034Z,1.90
2023-01-07T13:56:18.968Z,2.30
2023-01-07T14:01:22.973Z,2.13
2023-01-07T14:06:38.961Z,1.93
2023-01-07T14:12:06.690Z,2.20
2023-01-07T14:17:33.105Z,2.00
2023-01-07T14:23:29.199Z,2.27
2023-01-07T14:28:55.681Z,2.70
2023-01-07T14:34:16.737Z,2.50
2023-01-07T14:39:44.020Z,2.47
2023-01-07T14:44:50.944Z,1.93
2023-01-07T14:50:04.884Z,2.40
2023-01-07T14:55:50.651Z,2.70
2023-01-07T15:01:10.406Z,2.80
2023-01-07T15:06:36.492Z,2.23
2023-01-07T15:12:02.097Z,2.40
2023-01-07T15:17:05.137Z,4.40
2023-01-07T15:23:15.210Z,1.90
2023-01-07T15:28:38.274Z,2.83
2023-01-07T15:34:17.946Z,2.50
2023-01-07T15:39:40.848Z,2.20
2023-01-07T15:44:43.570Z,2.80
2023-01-07T15:49:45.251Z,3.50
2023-01-07T15:54:46.967Z,1.90
2023-01-07T15:59:53.512Z,2.57
2023-01-07T16:05:01.965Z,2.53
2023-01-07T16:10:04.415Z,2.57
2023-01-07T16:15:29.832Z,2.70
2023-01-07T16:20:38.494Z,1.70
2023-01-07T16:25:58.215Z,1.57
2023-01-07T16:31:03.992Z,2.47
2023-01-07T16:36:16.240Z,2.00
2023-01-07T16:41:25.626Z,1.60
2023-01-07T16:46:40.696Z,2.03
2023-01-07T16:52:02.558Z,1.97
2023-01-07T16:57:11.564Z,2.30
2023-01-07T17:02:55.257Z,2.10
2023-01-07T17:08:07.804Z,11.70
2023-01-07T17:13:15.657Z,3.00
2023-01-07T17:18:17.340Z,3.37
2023-01-07T17:23:25.132Z,1.77
2023-01-07T17:28:36.730Z,2.20
2023-01-07T17:33:38.479Z,2.10
2023-01-07T17:38:40.143Z,2.30
2023-01-07T17:43:41.871Z,2.30
2023-01-07T17:48:43.641Z,2.20
2023-01-07T17:53:50.053Z,2.57
2023-01-07T17:58:53.951Z,2.20
2023-01-07T18:03:57.504Z,4.27
2023-01-07T18:08:59.265Z,2.70
2023-01-07T18:14:02.212Z,3.40
2023-01-07T18:19:03.908Z,2.67
2023-01-07T18:24:06.517Z,2.90
2023-01-07T18:29:14.006Z,2.30
2023-01-07T18:34:16.093Z,3.07
2023-01-07T18:39:20.504Z,2.83
2023-01-07T18:44:24.901Z,3.20
2023-01-07T18:49:26.617Z,3.47
2023-01-07T18:54:29.146Z,3.50
2023-01-07T18:59:31.022Z,3.13
2023-01-07T19:04:37.290Z,3.30
2023-01-07T19:09:39.111Z,3.30
2023-01-07T19:14:41.894Z,3.30
2023-01-07T19:19:48.473Z,2.90
2023-01-07T19:24:50.605Z,3.10
2023-01-07T19:29:52.391Z,2.63
2023-01-07T19:34:54.084Z,2.37
2023-01-07T19:39:55.835Z,2.37
2023-01-07T19:44:57.627Z,2.80
2023-01-07T19:49:59.361Z,3.70
2023-01-07T19:55:01.145Z,2.70
2023-01-07T20:00:03.834Z,2.77
2023-01-07T20:05:06.320Z,2.93
2023-01-07T20:10:08.815Z,3.07
2023-01-07T20:15:11.149Z,3.70
2023-01-07T20:20:12.991Z,3.67
2023-01-07T20:25:14.831Z,4.03
2023-01-07T20:30:16.607Z,4.07
2023-01-07T20:35:18.368Z,3.43
2023-01-07T20:40:20.162Z,4.30
2023-01-07T20:45:21.872Z,4.50
2023-01-07T20:50:23.616Z,4.67
2023-01-07T20:55:25.367Z,4.83
2023-01-07T21:00:27.192Z,4.20
2023-01-07T21:05:28.973Z,4.40
2023-01-07T21:10:30.683Z,4.73
2023-01-07T21:15:32.556Z,4.63
2023-01-07T21:20:34.484Z,4.57
2023-01-07T21:25:36.389Z,4.37
2023-01-07T21:30:38.084Z,4.90
2023-01-07T21:35:41.634Z,4.40
2023-01-07T21:40:43.323Z,3.47
2023-01-07T21:45:45.092Z,4.40
2023-01-07T21:50:46.834Z,4.63
2023-01-07T21:55:48.663Z,4.90
2023-01-07T22:00:53.005Z,4.20
2023-01-07T22:06:01.949Z,4.43
2023-01-07T22:11:03.727Z,4.50
2023-01-07T22:16:06.242Z,7.50
2023-01-07T22:21:08.026Z,4.27
2023-01-07T22:26:10.699Z,3.97
2023-01-07T22:31:19.404Z,4.73
2023-01-07T22:36:44.355Z,3.60
2023-01-07T22:41:47.331Z,4.17
2023-01-07T22:46:53.124Z,4.33
2023-01-07T22:51:55.512Z,3.87
2023-01-07T22:56:57.411Z,4.13
2023-01-07T23:01:59.213Z,4.30
2023-01-07T23:07:01.000Z,4.10
2023-01-07T23:12:03.757Z,4.30
2023-01-07T23:17:05.695Z,4.00
2023-01-07T23:22:07.500Z,5.53
2023-01-07T23:27:09.282Z,4.50
2023-01-07T23:32:12.563Z,4.50
2023-01-07T23:37:14.304Z,3.80
2023-01-07T23:42:16.107Z,4.60
2023-01-07T23:47:17.864Z,4.47
2023-01-07T23:52:20.103Z,3.60
2023-01-07T23:57:21.826Z,4.10
